Time;durP1;ratioP1;P1;durP2;ratioP2;P2;SDS_P1;SDS_P2;PMS_P1;PMS_P2;Temp;Humidity;BMP_temperature;BMP_pressure;BME280_temperature;BME280_humidity;BME280_pressure;Samples;Min_cycle;Max_cycle;Signal;HPM_P1;HPM_P2
2023/08/17 00:01:04;;;;;;;3.50;3.20;;;;;;;;;;4879288;29;20978;-70
2023/08/17 00:03:32;;;;;;;3.60;3.30;;;;;;;;;;4878355;29;20717;-70
2023/08/17 00:06:00;;;;;;;3.27;2.90;;;;;;;;;;4857786;29;21178;-69
2023/08/17 00:08:28;;;;;;;3.33;3.13;;;;;;;;;;4861189;29;20624;-70
2023/08/17 00:10:57;;;;;;;3.43;3.13;;;;;;;;;;4879131;29;20623;-69
2023/08/17 00:13:25;;;;;;;3.23;3.03;;;;;;;;;;4878316;29;20649;-68
2023/08/17 00:15:55;;;;;;;3.50;3.27;;;;;;;;;;4848242;29;20635;-70
2023/08/17 00:18:23;;;;;;;2.77;2.57;;;;;;;;;;4878881;29;21018;-70
2023/08/17 00:20:51;;;;;;;4.40;3.30;;;;;;;;;;4879055;29;20629;-70
2023/08/17 00:23:20;;;;;;;3.00;2.90;;;;;;;;;;4879271;29;21021;-70
2023/08/17 00:25:49;;;;;;;6.67;3.27;;;;;;;;;;4877709;29;20647;-69
2023/08/17 00:28:18;;;;;;;2.60;2.40;;;;;;;;;;4879003;29;21014;-69
2023/08/17 00:30:46;;;;;;;2.97;2.77;;;;;;;;;;4878961;29;20623;-69
2023/08/17 00:33:16;;;;;;;3.47;2.57;;;;;;;;;;4878986;29;20617;-69
2023/08/17 00:35:45;;;;;;;5.97;3.03;;;;;;;;;;4878561;29;20622;-70
2023/08/17 00:38:13;;;;;;;5.00;2.97;;;;;;;;;;4878237;29;20638;-69
2023/08/17 00:40:42;;;;;;;3.40;3.10;;;;;;;;;;4878438;29;20630;-69
2023/08/17 00:43:10;;;;;;;4.23;2.67;;;;;;;;;;4878421;29;20634;-69
2023/08/17 00:45:38;;;;;;;2.83;2.63;;;;;;;;;;4878304;29;20631;-70
2023/08/17 00:48:08;;;;;;;3.30;3.00;;;;;;;;;;4877739;29;20667;-68
2023/08/17 00:50:38;;;;;;;4.10;3.70;;;;;;;;;;4877876;29;20623;-69
2023/08/17 00:53:06;;;;;;;4.00;3.20;;;;;;;;;;4878118;29;20635;-69
2023/08/17 00:55:35;;;;;;;3.90;3.60;;;;;;;;;;4862396;29;20647;-69
2023/08/17 00:58:03;;;;;;;4.97;3.40;;;;;;;;;;4861576;29;20632;-69
2023/08/17 01:00:32;;;;;;;4.10;3.27;;;;;;;;;;4878519;29;20631;-69
2023/08/17 01:03:01;;;;;;;3.97;3.20;;;;;;;;;;4859314;29;20655;-69
2023/08/17 01:05:29;;;;;;;3.77;3.40;;;;;;;;;;4862335;29;20647;-69
2023/08/17 01:07:59;;;;;;;6.83;4.00;;;;;;;;;;4878090;29;21072;-69
2023/08/17 01:10:27;;;;;;;6.67;4.23;;;;;;;;;;4878642;29;20611;-69
2023/08/17 01:13:00;;;;;;;3.80;3.50;;;;;;;;;;4877361;29;20637;-69
2023/08/17 01:15:33;;;;;;;4.37;4.00;;;;;;;;;;4878628;29;20583;-69
2023/08/17 01:18:05;;;;;;;4.07;3.77;;;;;;;;;;4861586;29;20611;-69
2023/08/17 01:20:34;;;;;;;5.80;3.77;;;;;;;;;;4878083;29;20595;-69
2023/08/17 01:23:06;;;;;;;5.57;4.20;;;;;;;;;;4877896;29;20985;-69
2023/08/17 01:25:36;;;;;;;5.13;3.77;;;;;;;;;;4878152;29;20591;-69
2023/08/17 01:28:05;;;;;;;5.47;3.97;;;;;;;;;;4877828;29;21067;-70
2023/08/17 01:30:35;;;;;;;3.63;3.43;;;;;;;;;;4877907;29;20627;-69
2023/08/17 01:33:07;;;;;;;4.50;4.20;;;;;;;;;;4878122;29;20606;-69
2023/08/17 01:35:39;;;;;;;4.83;4.00;;;;;;;;;;4877287;29;20594;-69
2023/08/17 01:38:13;;;;;;;4.37;3.97;;;;;;;;;;4878117;29;20607;-69
2023/08/17 01:40:43;;;;;;;6.00;5.07;;;;;;;;;;4860715;29;20638;-69
2023/08/17 01:43:13;;;;;;;4.57;4.23;;;;;;;;;;4877631;29;20618;-69
2023/08/17 01:45:42;;;;;;;6.67;5.30;;;;;;;;;;4876999;29;20638;-69
2023/08/17 01:48:10;;;;;;;4.87;4.37;;;;;;;;;;4877403;29;21311;-69
2023/08/17 01:50:39;;;;;;;6.97;6.20;;;;;;;;;;4861038;29;20653;-69
2023/08/17 01:53:08;;;;;;;5.33;4.93;;;;;;;;;;4877876;29;20635;-70
2023/08/17 01:55:37;;;;;;;6.60;4.60;;;;;;;;;;4877256;29;20645;-68
2023/08/17 01:58:08;;;;;;;4.77;4.33;;;;;;;;;;4861239;29;20607;-69
2023/08/17 02:00:37;;;;;;;5.40;4.90;;;;;;;;;;4860380;29;20639;-69
2023/08/17 02:03:05;;;;;;;5.17;4.77;;;;;;;;;;4876479;29;20665;-69
2023/08/17 02:05:33;;;;;;;5.47;4.50;;;;;;;;;;4876409;29;20618;-69
2023/08/17 02:08:02;;;;;;;5.00;4.10;;;;;;;;;;4871140;29;20681;-69
2023/08/17 02:10:30;;;;;;;10.90;4.73;;;;;;;;;;4876870;29;20606;-69
2023/08/17 02:13:00;;;;;;;5.23;4.70;;;;;;;;;;4877762;29;21046;-69
2023/08/17 02:15:28;;;;;;;5.17;4.77;;;;;;;;;;4860563;29;20670;-69
2023/08/17 02:17:56;;;;;;;5.17;4.67;;;;;;;;;;4877629;29;20702;-69
2023/08/17 02:20:24;;;;;;;4.40;4.10;;;;;;;;;;4877132;29;20644;-69
2023/08/17 02:22:52;;;;;;;5.87;4.40;;;;;;;;;;4860782;29;20647;-69
2023/08/17 02:25:21;;;;;;;4.97;4.47;;;;;;;;;;4877194;29;20639;-69
2023/08/17 02:27:49;;;;;;;4.80;4.40;;;;;;;;;;4877022;29;21029;-70
2023/08/17 02:30:18;;;;;;;5.27;4.87;;;;;;;;;;4877045;29;21038;-69
2023/08/17 02:32:47;;;;;;;5.67;5.10;;;;;;;;;;4877295;29;20648;-69
2023/08/17 02:35:15;;;;;;;7.77;5.00;;;;;;;;;;4878366;29;20639;-68
2023/08/17 02:37:43;;;;;;;6.70;4.63;;;;;;;;;;4863057;29;20662;-69
2023/08/17 02:40:12;;;;;;;6.40;4.83;;;;;;;;;;4881170;29;20623;-69
2023/08/17 02:42:40;;;;;;;6.33;4.97;;;;;;;;;;4880680;29;20639;-69
2023/08/17 02:45:09;;;;;;;5.30;4.90;;;;;;;;;;4881061;29;20625;-69
2023/08/17 02:47:39;;;;;;;8.40;5.60;;;;;;;;;;4880935;29;20666;-69
2023/08/17 02:50:07;;;;;;;5.63;5.13;;;;;;;;;;4880543;29;20696;-69
2023/08/17 02:52:35;;;;;;;5.67;5.17;;;;;;;;;;4880744;29;20627;-70
2023/08/17 02:55:04;;;;;;;8.67;5.50;;;;;;;;;;4880215;29;20631;-69
2023/08/17 02:57:33;;;;;;;7.07;6.50;;;;;;;;;;4864243;29;20619;-69
2023/08/17 03:00:01;;;;;;;5.67;5.17;;;;;;;;;;4879864;29;20634;-69
2023/08/17 03:02:31;;;;;;;5.17;4.77;;;;;;;;;;4879581;29;20613;-69
2023/08/17 03:05:01;;;;;;;6.20;5.60;;;;;;;;;;4852509;29;20682;-69
2023/08/17 03:07:29;;;;;;;5.50;5.10;;;;;;;;;;4866325;29;20636;-69
2023/08/17 03:09:57;;;;;;;5.73;5.13;;;;;;;;;;4879697;29;20641;-69
2023/08/17 03:12:26;;;;;;;6.03;5.43;;;;;;;;;;4879777;29;21193;-68
2023/08/17 03:14:54;;;;;;;6.10;5.60;;;;;;;;;;4861888;29;20612;-70
2023/08/17 03:17:22;;;;;;;5.30;4.80;;;;;;;;;;4850190;29;20635;-69
2023/08/17 03:19:50;;;;;;;5.67;4.90;;;;;;;;;;4864154;29;20631;-69
2023/08/17 03:22:20;;;;;;;6.33;5.73;;;;;;;;;;4879764;29;20634;-69
2023/08/17 03:24:48;;;;;;;7.30;6.10;;;;;;;;;;4879665;29;21001;-69
2023/08/17 03:27:16;;;;;;;6.03;5.13;;;;;;;;;;4879864;29;20620;-69
2023/08/17 03:29:45;;;;;;;5.80;5.17;;;;;;;;;;4880272;29;20675;-71
2023/08/17 03:32:13;;;;;;;6.10;5.50;;;;;;;;;;4879758;29;20623;-69
2023/08/17 03:34:41;;;;;;;7.97;5.07;;;;;;;;;;4879928;29;20626;-71
2023/08/17 03:37:09;;;;;;;5.00;4.50;;;;;;;;;;4863582;29;20631;-69
2023/08/17 03:39:39;;;;;;;6.03;5.53;;;;;;;;;;4879442;29;21165;-68
2023/08/17 03:42:07;;;;;;;4.50;4.20;;;;;;;;;;4879892;29;20937;-69
2023/08/17 03:44:35;;;;;;;5.13;4.63;;;;;;;;;;4878144;29;20633;-69
2023/08/17 03:47:04;;;;;;;5.63;5.13;;;;;;;;;;4879742;29;20623;-69
2023/08/17 03:49:32;;;;;;;6.00;4.90;;;;;;;;;;4862525;29;20663;-69
2023/08/17 03:52:00;;;;;;;5.40;4.90;;;;;;;;;;4879682;29;20630;-69
2023/08/17 03:54:28;;;;;;;5.93;5.40;;;;;;;;;;4879637;29;20682;-69
2023/08/17 03:56:58;;;;;;;6.07;4.80;;;;;;;;;;4879465;29;20692;-69
2023/08/17 03:59:27;;;;;;;5.67;5.00;;;;;;;;;;4879729;29;20988;-68
2023/08/17 04:01:55;;;;;;;5.73;5.27;;;;;;;;;;4878889;29;20646;-67
2023/08/17 04:04:23;;;;;;;6.70;5.87;;;;;;;;;;4870274;29;20691;-68
2023/08/17 04:06:52;;;;;;;5.40;5.00;;;;;;;;;;4871998;29;20647;-68
2023/08/17 04:09:20;;;;;;;6.13;5.03;;;;;;;;;;4879295;29;20667;-68
2023/08/17 04:11:48;;;;;;;5.43;4.70;;;;;;;;;;4863028;29;20633;-68
2023/08/17 04:14:18;;;;;;;4.70;4.33;;;;;;;;;;4862510;29;20639;-68
2023/08/17 04:16:48;;;;;;;5.80;5.00;;;;;;;;;;4879119;29;20647;-69
2023/08/17 04:19:16;;;;;;;5.30;4.80;;;;;;;;;;4862866;29;20619;-68
2023/08/17 04:21:44;;;;;;;5.30;4.80;;;;;;;;;;4877929;29;20631;-69
2023/08/17 04:24:13;;;;;;;5.33;4.90;;;;;;;;;;4878378;29;20641;-69
2023/08/17 04:26:42;;;;;;;4.73;4.40;;;;;;;;;;4862398;29;20623;-69
2023/08/17 04:29:10;;;;;;;4.97;4.57;;;;;;;;;;4878906;29;20655;-69
2023/08/17 04:31:40;;;;;;;4.60;4.27;;;;;;;;;;4861592;29;20632;-69
2023/08/17 04:34:08;;;;;;;5.10;4.80;;;;;;;;;;4862526;29;20626;-69
2023/08/17 04:36:36;;;;;;;5.30;4.50;;;;;;;;;;4878609;29;20631;-68
2023/08/17 04:39:06;;;;;;;4.80;4.50;;;;;;;;;;4874532;29;20635;-69
2023/08/17 04:41:34;;;;;;;4.63;4.20;;;;;;;;;;4862103;29;20991;-69
2023/08/17 04:44:06;;;;;;;6.33;5.10;;;;;;;;;;4862126;29;20615;-68
2023/08/17 04:46:34;;;;;;;5.30;3.87;;;;;;;;;;4878327;29;20635;-69
2023/08/17 04:49:03;;;;;;;4.90;4.13;;;;;;;;;;4878121;29;20673;-69
2023/08/17 04:51:33;;;;;;;6.30;4.20;;;;;;;;;;4878406;29;21164;-69
2023/08/17 04:54:01;;;;;;;5.40;4.00;;;;;;;;;;4862163;29;20616;-69
2023/08/17 04:56:29;;;;;;;4.90;4.40;;;;;;;;;;4861929;29;20631;-69
2023/08/17 04:58:57;;;;;;;5.00;4.30;;;;;;;;;;4878033;29;20643;-69
2023/08/17 05:01:26;;;;;;;4.77;4.37;;;;;;;;;;4877163;29;21136;-69
2023/08/17 05:03:56;;;;;;;5.50;5.00;;;;;;;;;;4857071;29;20676;-69
2023/08/17 05:06:29;;;;;;;5.50;5.03;;;;;;;;;;4874066;29;20639;-67
2023/08/17 05:08:57;;;;;;;4.87;4.43;;;;;;;;;;4878454;29;21019;-69
2023/08/17 05:11:26;;;;;;;5.03;4.63;;;;;;;;;;4875876;29;20993;-69
2023/08/17 05:13:54;;;;;;;5.57;4.63;;;;;;;;;;4878922;29;21181;-69
2023/08/17 05:16:23;;;;;;;5.23;4.83;;;;;;;;;;4878433;29;20631;-69
2023/08/17 05:18:51;;;;;;;9.17;5.33;;;;;;;;;;4861580;29;20630;-69
2023/08/17 05:21:20;;;;;;;8.80;5.53;;;;;;;;;;4860579;29;20619;-69
2023/08/17 05:23:49;;;;;;;8.00;5.80;;;;;;;;;;4864677;29;20974;-70
2023/08/17 05:26:18;;;;;;;5.60;5.07;;;;;;;;;;4866241;29;20584;-70
2023/08/17 05:28:47;;;;;;;8.83;5.70;;;;;;;;;;4877097;29;20741;-69
2023/08/17 05:31:15;;;;;;;6.00;5.50;;;;;;;;;;4861026;29;21032;-70
2023/08/17 05:33:48;;;;;;;5.20;4.80;;;;;;;;;;4861186;29;20630;-68
2023/08/17 05:36:16;;;;;;;8.30;5.60;;;;;;;;;;4860412;29;20628;-68
2023/08/17 05:38:44;;;;;;;6.50;5.93;;;;;;;;;;4868488;29;20636;-68
2023/08/17 05:41:13;;;;;;;9.07;6.60;;;;;;;;;;4872442;29;20633;-69
2023/08/17 05:43:42;;;;;;;10.13;5.70;;;;;;;;;;4861632;29;20639;-68
2023/08/17 05:46:10;;;;;;;7.10;5.80;;;;;;;;;;4876934;29;20623;-69
2023/08/17 05:48:39;;;;;;;8.03;6.70;;;;;;;;;;4875910;29;20639;-69
2023/08/17 05:51:07;;;;;;;6.30;5.70;;;;;;;;;;4876606;29;20634;-69
2023/08/17 05:53:35;;;;;;;7.50;6.90;;;;;;;;;;4877412;29;20643;-68
2023/08/17 05:56:04;;;;;;;6.43;5.87;;;;;;;;;;4876771;29;20631;-70
2023/08/17 05:58:33;;;;;;;6.90;6.07;;;;;;;;;;4860952;29;20635;-70
2023/08/17 06:01:08;;;;;;;17.30;5.93;;;;;;;;;;4863869;29;20962;-70
2023/08/17 06:03:36;;;;;;;6.07;5.47;;;;;;;;;;4875418;29;20688;-70
2023/08/17 06:06:05;;;;;;;10.00;6.90;;;;;;;;;;4868861;29;20635;-69
2023/08/17 06:08:34;;;;;;;7.60;6.90;;;;;;;;;;4877702;29;20643;-71
2023/08/17 06:11:02;;;;;;;8.43;7.60;;;;;;;;;;4877006;29;20679;-70
2023/08/17 06:13:30;;;;;;;11.83;8.40;;;;;;;;;;4876729;29;20636;-69
2023/08/17 06:16:00;;;;;;;13.30;8.03;;;;;;;;;;4876995;29;20645;-70
2023/08/17 06:18:31;;;;;;;11.70;10.10;;;;;;;;;;4876782;29;20627;-70
2023/08/17 06:20:59;;;;;;;12.47;10.93;;;;;;;;;;4877039;29;20635;-70
2023/08/17 06:23:27;;;;;;;11.57;10.40;;;;;;;;;;4876804;29;20627;-70
2023/08/17 06:25:58;;;;;;;12.30;11.10;;;;;;;;;;4860599;29;20649;-69
2023/08/17 06:28:27;;;;;;;13.10;11.03;;;;;;;;;;4876843;29;20631;-70
2023/08/17 06:30:56;;;;;;;13.93;12.67;;;;;;;;;;4876800;29;20722;-68
2023/08/17 06:33:25;;;;;;;15.40;14.00;;;;;;;;;;4867138;29;20639;-70
2023/08/17 06:35:53;;;;;;;15.57;14.03;;;;;;;;;;4860515;29;20631;-70
2023/08/17 06:38:22;;;;;;;16.67;15.10;;;;;;;;;;4872011;29;20636;-70
2023/08/17 06:40:50;;;;;;;16.67;15.07;;;;;;;;;;4876845;29;20714;-70
2023/08/17 06:43:19;;;;;;;18.73;16.00;;;;;;;;;;4876882;29;20691;-70
2023/08/17 06:45:47;;;;;;;16.87;14.77;;;;;;;;;;4876278;29;20643;-69
2023/08/17 06:48:15;;;;;;;15.53;14.03;;;;;;;;;;4876620;29;20639;-70
2023/08/17 06:50:45;;;;;;;16.20;14.70;;;;;;;;;;4876794;29;20677;-70
2023/08/17 06:53:13;;;;;;;15.43;13.93;;;;;;;;;;4876525;29;21038;-70
2023/08/17 06:55:41;;;;;;;14.90;13.40;;;;;;;;;;4876866;29;20627;-70
2023/08/17 06:58:10;;;;;;;14.37;12.97;;;;;;;;;;4876472;29;20623;-70
2023/08/17 07:00:40;;;;;;;16.63;14.17;;;;;;;;;;4875384;29;20637;-70
2023/08/17 07:03:08;;;;;;;15.73;14.13;;;;;;;;;;4870998;29;20678;-70
2023/08/17 07:05:36;;;;;;;16.53;14.63;;;;;;;;;;4873013;29;20629;-70
2023/08/17 07:08:07;;;;;;;16.17;14.30;;;;;;;;;;4870056;29;21189;-70
2023/08/17 07:10:36;;;;;;;16.27;14.70;;;;;;;;;;4867396;29;21006;-70
2023/08/17 07:13:04;;;;;;;17.70;15.73;;;;;;;;;;4872498;29;20621;-70
2023/08/17 07:15:32;;;;;;;18.70;14.50;;;;;;;;;;4845561;29;20996;-70
2023/08/17 07:18:00;;;;;;;16.90;14.47;;;;;;;;;;4876828;29;20631;-70
2023/08/17 07:20:29;;;;;;;19.17;17.03;;;;;;;;;;4876832;29;21012;-68
2023/08/17 07:22:57;;;;;;;19.33;15.17;;;;;;;;;;4880115;29;20629;-69
2023/08/17 07:25:26;;;;;;;21.77;16.73;;;;;;;;;;4880042;29;20622;-68
2023/08/17 07:27:55;;;;;;;21.33;17.33;;;;;;;;;;4880291;29;20699;-71
2023/08/17 07:30:23;;;;;;;20.93;17.80;;;;;;;;;;4880476;29;20722;-70
2023/08/17 07:32:51;;;;;;;21.40;17.80;;;;;;;;;;4878956;29;20627;-70
2023/08/17 07:35:20;;;;;;;19.10;16.03;;;;;;;;;;4879444;29;20638;-70
2023/08/17 07:37:48;;;;;;;22.30;17.90;;;;;;;;;;4878180;29;21189;-70
2023/08/17 07:40:16;;;;;;;23.40;17.60;;;;;;;;;;4875479;29;20634;-72
2023/08/17 07:42:46;;;;;;;27.80;18.30;;;;;;;;;;4878477;29;20631;-70
2023/08/17 07:45:15;;;;;;;26.07;20.60;;;;;;;;;;4878895;29;21244;-70
2023/08/17 07:47:43;;;;;;;30.80;21.00;;;;;;;;;;4861372;29;20627;-72
2023/08/17 07:50:11;;;;;;;32.40;21.10;;;;;;;;;;4879528;29;20663;-70
2023/08/17 07:52:39;;;;;;;30.33;20.50;;;;;;;;;;4878961;29;20623;-70
2023/08/17 07:55:08;;;;;;;29.93;21.53;;;;;;;;;;4862207;29;20630;-70
2023/08/17 07:57:36;;;;;;;32.17;20.70;;;;;;;;;;4878405;29;20635;-70
2023/08/17 08:00:06;;;;;;;23.63;19.93;;;;;;;;;;4878963;29;20722;-70
2023/08/17 08:02:37;;;;;;;26.37;19.77;;;;;;;;;;4884150;29;20727;-64
2023/08/17 08:05:06;;;;;;;29.70;20.43;;;;;;;;;;4888041;29;21320;-65
2023/08/17 08:07:34;;;;;;;26.97;21.10;;;;;;;;;;4888959;29;21308;-64
2023/08/17 08:10:02;;;;;;;32.83;19.97;;;;;;;;;;4889129;29;21107;-65
2023/08/17 08:12:30;;;;;;;28.80;20.97;;;;;;;;;;4890546;29;20683;-64
2023/08/17 08:14:59;;;;;;;25.93;20.53;;;;;;;;;;4890606;29;20726;-65
2023/08/17 08:17:28;;;;;;;26.93;20.67;;;;;;;;;;4888301;29;20698;-65
2023/08/17 08:19:58;;;;;;;30.83;21.73;;;;;;;;;;4891961;29;21112;-65
2023/08/17 08:22:26;;;;;;;31.90;21.50;;;;;;;;;;4891548;29;20699;-66
2023/08/17 08:24:54;;;;;;;27.77;21.77;;;;;;;;;;4875742;29;20694;-65
2023/08/17 08:27:23;;;;;;;25.17;19.47;;;;;;;;;;4889212;29;20703;-64
2023/08/17 08:29:51;;;;;;;30.10;22.03;;;;;;;;;;4889187;29;21225;-64
2023/08/17 08:32:19;;;;;;;29.23;21.63;;;;;;;;;;4886315;29;20723;-66
2023/08/17 08:34:49;;;;;;;27.90;20.70;;;;;;;;;;4891468;29;20703;-64
2023/08/17 08:37:17;;;;;;;30.30;22.13;;;;;;;;;;4892084;29;20711;-65
2023/08/17 08:39:52;;;;;;;27.60;22.43;;;;;;;;;;4886189;29;20698;-65
2023/08/17 08:42:20;;;;;;;29.03;22.67;;;;;;;;;;4890551;29;20674;-65
2023/08/17 08:44:49;;;;;;;29.43;23.17;;;;;;;;;;4890661;29;20701;-66
2023/08/17 08:47:18;;;;;;;26.40;20.33;;;;;;;;;;4890218;29;20772;-65
2023/08/17 08:49:52;;;;;;;25.50;20.80;;;;;;;;;;4889491;29;20683;-66
2023/08/17 08:52:22;;;;;;;27.77;22.40;;;;;;;;;;4891308;29;20725;-64
2023/08/17 08:54:51;;;;;;;20.20;18.10;;;;;;;;;;4891219;29;20707;-65
2023/08/17 08:57:20;;;;;;;20.90;18.03;;;;;;;;;;4890926;29;21209;-64
2023/08/17 08:59:49;;;;;;;21.23;18.53;;;;;;;;;;4890969;29;20695;-65
2023/08/17 09:02:18;;;;;;;23.07;19.30;;;;;;;;;;4889991;29;20620;-66
2023/08/17 09:04:50;;;;;;;20.37;18.17;;;;;;;;;;4882317;29;20779;-64
2023/08/17 09:07:19;;;;;;;22.27;19.87;;;;;;;;;;4889328;29;20695;-65
2023/08/17 09:09:47;;;;;;;23.17;17.43;;;;;;;;;;4889622;29;20687;-66
2023/08/17 09:12:16;;;;;;;18.20;16.40;;;;;;;;;;4890889;29;20762;-66
2023/08/17 09:14:44;;;;;;;19.30;17.33;;;;;;;;;;4895083;29;20686;-64
2023/08/17 09:17:12;;;;;;;18.43;16.53;;;;;;;;;;4909374;29;20682;-64
2023/08/17 09:19:40;;;;;;;18.87;16.87;;;;;;;;;;4908758;29;21309;-66
2023/08/17 09:22:10;;;;;;;15.70;14.10;;;;;;;;;;4909192;29;20702;-66
2023/08/17 09:24:39;;;;;;;22.33;18.10;;;;;;;;;;4908642;29;20701;-65
2023/08/17 09:27:08;;;;;;;24.87;22.23;;;;;;;;;;4908892;29;21046;-64
2023/08/17 09:29:38;;;;;;;17.23;15.63;;;;;;;;;;4908219;29;20717;-65
2023/08/17 09:32:06;;;;;;;19.60;16.17;;;;;;;;;;4909042;29;20751;-65
2023/08/17 09:34:34;;;;;;;16.37;14.97;;;;;;;;;;4907868;29;20698;-65
2023/08/17 09:37:06;;;;;;;17.33;15.63;;;;;;;;;;4908377;29;20677;-65
2023/08/17 09:39:38;;;;;;;19.83;15.80;;;;;;;;;;4890957;29;20716;-67
2023/08/17 09:42:09;;;;;;;18.80;16.30;;;;;;;;;;4908125;29;21164;-64
2023/08/17 09:44:37;;;;;;;16.70;14.93;;;;;;;;;;4907850;29;20705;-65
2023/08/17 09:47:06;;;;;;;17.83;14.63;;;;;;;;;;4907421;29;20705;-65
2023/08/17 09:49:35;;;;;;;15.97;14.33;;;;;;;;;;4907829;29;20717;-64
2023/08/17 09:52:03;;;;;;;16.77;15.27;;;;;;;;;;4906807;29;20786;-65
2023/08/17 09:54:32;;;;;;;16.93;15.13;;;;;;;;;;4890301;29;20682;-65
2023/08/17 09:57:02;;;;;;;16.00;14.50;;;;;;;;;;4908045;29;20691;-64
2023/08/17 09:59:30;;;;;;;15.13;13.53;;;;;;;;;;4907888;29;20690;-65
2023/08/17 10:02:00;;;;;;;14.93;13.43;;;;;;;;;;4907471;29;20678;-64
2023/08/17 10:04:30;;;;;;;15.80;14.27;;;;;;;;;;4892332;29;20748;-65
2023/08/17 10:07:02;;;;;;;20.60;16.60;;;;;;;;;;4889629;29;20690;-64
2023/08/17 10:09:33;;;;;;;14.77;13.23;;;;;;;;;;4888088;29;20682;-65
2023/08/17 10:12:07;;;;;;;14.23;13.00;;;;;;;;;;4888162;29;20775;-65
2023/08/17 10:14:39;;;;;;;17.93;13.63;;;;;;;;;;4887693;29;20699;-67
2023/08/17 10:17:10;;;;;;;19.47;15.40;;;;;;;;;;4888619;29;20684;-65
2023/08/17 10:19:40;;;;;;;13.70;11.90;;;;;;;;;;4888903;29;20678;-64
2023/08/17 10:22:13;;;;;;;11.67;10.60;;;;;;;;;;4889202;29;20664;-64
2023/08/17 10:24:42;;;;;;;11.13;10.13;;;;;;;;;;4888335;29;20659;-65
2023/08/17 10:27:12;;;;;;;12.00;10.90;;;;;;;;;;4888750;29;20722;-64
2023/08/17 10:29:40;;;;;;;12.63;11.43;;;;;;;;;;4889133;29;20691;-64
2023/08/17 10:32:08;;;;;;;11.47;10.40;;;;;;;;;;4888039;29;20722;-64
2023/08/17 10:34:38;;;;;;;13.70;12.50;;;;;;;;;;4889288;29;20706;-66
2023/08/17 10:37:09;;;;;;;13.03;10.93;;;;;;;;;;4889084;29;20748;-66
2023/08/17 10:39:39;;;;;;;11.73;10.63;;;;;;;;;;4884783;29;20683;-67
2023/08/17 10:42:14;;;;;;;10.40;9.60;;;;;;;;;;4887565;29;20686;-64
2023/08/17 10:44:45;;;;;;;12.63;11.53;;;;;;;;;;4888381;29;20694;-64
2023/08/17 10:47:20;;;;;;;11.40;10.30;;;;;;;;;;4889200;29;20710;-64
2023/08/17 10:49:51;;;;;;;12.00;9.80;;;;;;;;;;4884380;29;20687;-65
2023/08/17 10:52:30;;;;;;;10.30;9.50;;;;;;;;;;4870144;29;20801;-63
2023/08/17 10:55:01;;;;;;;10.63;9.73;;;;;;;;;;4868993;29;20659;-64
2023/08/17 10:57:31;;;;;;;9.43;8.63;;;;;;;;;;4871829;29;20682;-64
2023/08/17 11:00:10;;;;;;;10.10;9.10;;;;;;;;;;4872712;29;21073;-64
2023/08/17 11:02:41;;;;;;;10.67;9.20;;;;;;;;;;4871930;29;20691;-64
2023/08/17 11:05:09;;;;;;;10.03;9.23;;;;;;;;;;4877839;29;20769;-65
2023/08/17 11:07:41;;;;;;;9.30;8.50;;;;;;;;;;4891305;29;20698;-65
2023/08/17 11:10:13;;;;;;;10.60;9.50;;;;;;;;;;4892669;29;20670;-64
2023/08/17 11:12:44;;;;;;;10.07;9.37;;;;;;;;;;4891648;29;21292;-64
2023/08/17 11:15:15;;;;;;;8.77;8.10;;;;;;;;;;4892468;29;20686;-67
2023/08/17 11:17:43;;;;;;;10.00;9.20;;;;;;;;;;4891501;29;20687;-64
2023/08/17 11:20:14;;;;;;;10.33;9.43;;;;;;;;;;4891261;29;20681;-64
2023/08/17 11:22:42;;;;;;;10.97;9.90;;;;;;;;;;4890845;29;20690;-65
2023/08/17 11:25:13;;;;;;;11.90;11.10;;;;;;;;;;4874215;29;20694;-64
2023/08/17 11:27:41;;;;;;;11.20;10.40;;;;;;;;;;4890834;29;20610;-64
2023/08/17 11:30:12;;;;;;;11.90;11.10;;;;;;;;;;4891071;29;20691;-64
2023/08/17 11:32:40;;;;;;;12.30;11.50;;;;;;;;;;4890784;29;20744;-65
2023/08/17 11:35:09;;;;;;;12.87;11.80;;;;;;;;;;4890656;29;20684;-66
2023/08/17 11:37:39;;;;;;;12.93;11.73;;;;;;;;;;4890737;29;20740;-66
2023/08/17 11:40:09;;;;;;;12.27;11.57;;;;;;;;;;4891568;29;20702;-65
2023/08/17 11:42:38;;;;;;;12.37;11.57;;;;;;;;;;4890132;29;20705;-65
2023/08/17 11:45:07;;;;;;;12.67;11.73;;;;;;;;;;4890242;29;20714;-64
2023/08/17 11:47:37;;;;;;;12.07;10.97;;;;;;;;;;4889148;29;20717;-66
2023/08/17 11:50:06;;;;;;;9.80;9.20;;;;;;;;;;4890259;29;20702;-64
2023/08/17 11:52:36;;;;;;;9.60;8.90;;;;;;;;;;4889265;29;20746;-64
2023/08/17 11:55:05;;;;;;;9.43;8.83;;;;;;;;;;4889753;29;21032;-64
2023/08/17 11:57:34;;;;;;;10.37;9.57;;;;;;;;;;4889389;29;20694;-64
2023/08/17 12:00:03;;;;;;;10.83;10.00;;;;;;;;;;4890432;29;20706;-64
2023/08/17 12:02:37;;;;;;;9.60;8.80;;;;;;;;;;4889407;29;20658;-64
2023/08/17 12:05:10;;;;;;;36.97;9.50;;;;;;;;;;4872579;29;20766;-65
2023/08/17 12:07:38;;;;;;;13.70;8.80;;;;;;;;;;4870598;29;20687;-65
2023/08/17 12:10:07;;;;;;;8.93;8.23;;;;;;;;;;4871681;29;20699;-64
2023/08/17 12:12:38;;;;;;;9.10;8.50;;;;;;;;;;4870009;29;20739;-66
2023/08/17 12:15:06;;;;;;;10.60;8.40;;;;;;;;;;4870222;29;20663;-64
2023/08/17 12:17:36;;;;;;;8.77;8.17;;;;;;;;;;4869587;29;20714;-66
2023/08/17 12:20:04;;;;;;;8.43;7.87;;;;;;;;;;4869950;29;20715;-64
2023/08/17 12:22:34;;;;;;;7.87;7.30;;;;;;;;;;4870077;29;20703;-64
2023/08/17 12:25:03;;;;;;;7.60;7.00;;;;;;;;;;4869322;29;20707;-65
2023/08/17 12:27:33;;;;;;;9.07;8.27;;;;;;;;;;4870624;29;20692;-64
2023/08/17 12:30:01;;;;;;;10.17;8.63;;;;;;;;;;4870262;29;20744;-64
2023/08/17 12:32:29;;;;;;;7.17;6.67;;;;;;;;;;4869647;29;20762;-64
2023/08/17 12:34:58;;;;;;;10.33;6.00;;;;;;;;;;4868279;29;20688;-65
2023/08/17 12:37:26;;;;;;;7.67;6.47;;;;;;;;;;4867886;29;20696;-64
2023/08/17 12:39:58;;;;;;;6.47;5.87;;;;;;;;;;4869554;29;20740;-65
2023/08/17 12:42:29;;;;;;;6.23;5.73;;;;;;;;;;4869515;29;20679;-64
2023/08/17 12:44:57;;;;;;;7.30;6.67;;;;;;;;;;4869852;29;21144;-65
2023/08/17 12:47:25;;;;;;;7.20;6.53;;;;;;;;;;4870742;29;20699;-68
2023/08/17 12:49:53;;;;;;;6.90;6.40;;;;;;;;;;4870989;29;20707;-65
2023/08/17 12:52:22;;;;;;;8.73;6.80;;;;;;;;;;4871960;29;20766;-65
2023/08/17 12:54:50;;;;;;;6.90;6.20;;;;;;;;;;4870307;29;20699;-65
2023/08/17 12:57:19;;;;;;;8.30;7.47;;;;;;;;;;4869421;29;20775;-65
2023/08/17 12:59:48;;;;;;;8.33;7.70;;;;;;;;;;4870341;29;20733;-64
2023/08/17 13:02:16;;;;;;;8.40;7.80;;;;;;;;;;4869024;29;20723;-65
2023/08/17 13:04:44;;;;;;;8.80;8.23;;;;;;;;;;4879619;29;20770;-64
2023/08/17 13:07:13;;;;;;;8.50;7.90;;;;;;;;;;4888560;29;20662;-64
2023/08/17 13:09:41;;;;;;;8.37;7.87;;;;;;;;;;4871590;29;20695;-64
2023/08/17 13:12:10;;;;;;;9.60;8.93;;;;;;;;;;4869714;29;20785;-65
2023/08/17 13:14:39;;;;;;;9.50;8.80;;;;;;;;;;4870392;29;21222;-65
2023/08/17 13:17:07;;;;;;;9.60;8.80;;;;;;;;;;4870135;29;20715;-65
2023/08/17 13:19:36;;;;;;;10.07;9.47;;;;;;;;;;4869760;29;20700;-66
2023/08/17 13:22:04;;;;;;;10.00;9.30;;;;;;;;;;4869216;29;20620;-64
2023/08/17 13:24:32;;;;;;;10.20;9.70;;;;;;;;;;4870004;29;20692;-64
2023/08/17 13:27:00;;;;;;;10.67;10.00;;;;;;;;;;4870142;29;20712;-64
2023/08/17 13:29:29;;;;;;;10.83;10.30;;;;;;;;;;4868992;29;20680;-64
2023/08/17 13:31:58;;;;;;;11.13;10.53;;;;;;;;;;4869240;29;20695;-64
2023/08/17 13:34:29;;;;;;;10.67;10.07;;;;;;;;;;4853511;29;20711;-65
2023/08/17 13:36:57;;;;;;;10.80;10.20;;;;;;;;;;4868975;29;20707;-64
2023/08/17 13:39:26;;;;;;;10.93;10.23;;;;;;;;;;4868716;29;20723;-66
2023/08/17 13:41:54;;;;;;;11.17;10.43;;;;;;;;;;4869712;29;20707;-65
2023/08/17 13:44:22;;;;;;;10.50;9.90;;;;;;;;;;4869489;29;20691;-65
2023/08/17 13:46:51;;;;;;;11.40;10.60;;;;;;;;;;4869825;29;20715;-64
2023/08/17 13:49:20;;;;;;;10.57;9.70;;;;;;;;;;4867746;29;20711;-65
2023/08/17 13:51:49;;;;;;;10.33;9.77;;;;;;;;;;4868580;29;20946;-65
2023/08/17 13:54:17;;;;;;;10.63;10.03;;;;;;;;;;4868338;29;20739;-64
2023/08/17 13:56:45;;;;;;;10.70;10.10;;;;;;;;;;4868814;29;20688;-65
2023/08/17 13:59:13;;;;;;;9.80;9.00;;;;;;;;;;4867696;29;20731;-64
2023/08/17 14:01:42;;;;;;;12.20;10.90;;;;;;;;;;4868223;29;20708;-64
2023/08/17 14:04:12;;;;;;;12.17;11.40;;;;;;;;;;4872697;29;20830;-65
2023/08/17 14:06:42;;;;;;;10.07;9.47;;;;;;;;;;4888110;29;20717;-64
2023/08/17 14:09:10;;;;;;;10.67;9.80;;;;;;;;;;4888348;29;20722;-65
2023/08/17 14:11:38;;;;;;;11.33;10.53;;;;;;;;;;4888506;29;20747;-65
2023/08/17 14:14:07;;;;;;;11.13;10.33;;;;;;;;;;4888406;29;20753;-64
2023/08/17 14:16:35;;;;;;;15.00;10.10;;;;;;;;;;4888075;29;20702;-66
2023/08/17 14:19:03;;;;;;;10.90;10.30;;;;;;;;;;4888492;29;20679;-65
2023/08/17 14:21:31;;;;;;;11.40;10.10;;;;;;;;;;4888164;29;20683;-64
2023/08/17 14:24:01;;;;;;;11.47;10.87;;;;;;;;;;4888524;29;20705;-65
2023/08/17 14:26:29;;;;;;;12.77;11.97;;;;;;;;;;4888498;29;20710;-65
2023/08/17 14:28:57;;;;;;;12.27;11.57;;;;;;;;;;4888764;29;20691;-65
2023/08/17 14:31:28;;;;;;;12.37;11.70;;;;;;;;;;4889886;29;20687;-65
2023/08/17 14:33:56;;;;;;;13.07;12.30;;;;;;;;;;4891732;29;20738;-64
2023/08/17 14:36:28;;;;;;;12.17;11.40;;;;;;;;;;4876159;29;20694;-65
2023/08/17 14:38:56;;;;;;;13.20;12.50;;;;;;;;;;4891446;29;20676;-65
2023/08/17 14:41:31;;;;;;;13.73;12.83;;;;;;;;;;4891537;29;20713;-65